createdAt,value
2018-07-13T06:41:23.413Z,44
2018-07-13T06:44:23.418Z,37
2018-07-13T06:47:23.449Z,36
2018-07-13T06:50:23.537Z,33
2018-07-13T06:53:23.515Z,30
2018-07-13T06:56:23.563Z,29
2018-07-13T06:59:23.674Z,28
2018-07-13T07:02:23.590Z,26
2018-07-13T07:05:23.614Z,26
2018-07-13T07:08:23.751Z,24
2018-07-13T07:11:24.228Z,24
2018-07-13T07:14:23.703Z,22
2018-07-13T07:17:23.739Z,24
2018-07-13T07:20:23.874Z,23
2018-07-13T07:23:23.790Z,22
2018-07-13T07:26:23.964Z,21
2018-07-13T07:29:23.894Z,19
2018-07-13T07:32:23.987Z,21
2018-07-13T07:35:23.935Z,19
2018-07-13T07:38:24.073Z,18
2018-07-13T07:41:24.226Z,20
2018-07-13T07:44:24.188Z,20
2018-07-13T07:47:24.078Z,18
2018-07-13T07:50:24.096Z,19
2018-07-13T07:53:24.144Z,17
2018-07-13T07:56:24.272Z,18
2018-07-13T07:59:24.218Z,17
2018-07-13T08:02:24.266Z,16
2018-07-13T08:05:24.278Z,18
2018-07-13T08:08:24.332Z,16
2018-07-13T08:11:24.477Z,16
2018-07-13T08:14:24.454Z,15
2018-07-13T08:17:24.460Z,15
2018-07-13T08:20:24.492Z,17
2018-07-13T08:23:24.639Z,20
2018-07-13T08:26:24.553Z,16
2018-07-13T08:29:24.719Z,21
2018-07-13T08:32:24.651Z,20
2018-07-13T08:35:24.674Z,21
2018-07-13T08:38:24.719Z,17
2018-07-13T08:41:24.744Z,16
2018-07-13T08:44:24.798Z,18
2018-07-13T08:47:24.821Z,17
2018-07-13T08:50:24.959Z,15
2018-07-13T08:53:24.927Z,15
2018-07-13T08:56:25.051Z,14
2018-07-13T08:59:25.026Z,19
2018-07-13T09:02:25.048Z,18
2018-07-13T09:05:25.073Z,19
2018-07-13T09:08:25.228Z,17
2018-07-13T09:11:25.158Z,15
2018-07-13T09:14:25.639Z,14
2018-07-13T09:17:25.249Z,17
2018-07-13T09:20:25.278Z,14
2018-07-13T09:23:25.546Z,17
2018-07-13T09:26:25.361Z,15
2018-07-13T09:29:25.382Z,24
2018-07-13T09:32:25.849Z,27
2018-07-13T09:35:25.428Z,28
2018-07-13T09:38:25.481Z,28
2018-07-13T09:41:25.464Z,29
2018-07-13T09:44:25.518Z,30
2018-07-13T09:47:25.654Z,30
2018-07-13T09:50:25.554Z,31
2018-07-13T09:53:25.565Z,31
2018-07-13T09:56:25.613Z,29
2018-07-13T09:59:25.641Z,32
2018-07-13T10:02:25.664Z,30
2018-07-13T10:05:26.114Z,30
2018-07-13T10:08:25.811Z,30
2018-07-13T10:11:25.724Z,30
2018-07-13T10:14:25.763Z,30
2018-07-13T10:17:25.783Z,30
2018-07-13T10:20:25.948Z,31
2018-07-13T10:23:25.946Z,32
2018-07-13T10:26:26.043Z,32
2018-07-13T10:29:25.896Z,35
2018-07-13T10:32:25.910Z,33
2018-07-13T10:35:26.109Z,33
2018-07-13T10:38:25.965Z,34
2018-07-13T10:41:26.097Z,33
2018-07-13T10:44:26.023Z,32
2018-07-13T10:47:26.031Z,32
2018-07-13T10:50:26.037Z,31
2018-07-13T10:53:26.514Z,31
2018-07-13T10:56:26.102Z,30
2018-07-13T10:59:26.149Z,29
2018-07-13T11:02:26.173Z,29
2018-07-13T11:05:26.202Z,30
2018-07-13T11:08:26.215Z,29
2018-07-13T11:11:26.260Z,28
2018-07-13T11:14:26.291Z,28
2018-07-13T11:17:26.300Z,27
2018-07-13T11:20:26.347Z,27
2018-07-13T11:23:26.485Z,25
2018-07-13T11:26:26.405Z,21
2018-07-13T11:29:26.474Z,18
2018-07-13T11:32:26.542Z,15
2018-07-13T11:35:26.666Z,13
2018-07-13T11:38:26.631Z,12
2018-07-13T11:41:26.700Z,14
2018-07-13T11:44:26.710Z,19
2018-07-13T11:47:26.773Z,17
2018-07-13T11:50:26.786Z,13
2018-07-13T11:53:26.831Z,15
2018-07-13T11:56:26.892Z,11
2018-07-13T11:59:27.165Z,14
2018-07-13T12:02:27.010Z,15
2018-07-13T12:05:27.029Z,13
2018-07-13T12:08:27.074Z,12
2018-07-13T12:11:27.253Z,12
2018-07-13T12:14:27.369Z,11
2018-07-13T12:17:27.419Z,11
2018-07-13T12:20:27.307Z,11
2018-07-13T12:23:27.503Z,11
2018-07-13T12:26:27.417Z,11
2018-07-13T12:29:27.512Z,10
2018-07-13T12:32:27.626Z,10
2018-07-13T12:35:27.602Z,12
2018-07-13T12:38:27.660Z,11
2018-07-13T12:44:27.808Z,10
2018-07-13T12:47:27.866Z,11
2018-07-13T12:50:28.028Z,10
2018-07-13T12:53:27.952Z,12
2018-07-13T12:56:28.014Z,11
2018-07-13T12:59:28.122Z,11
2018-07-13T13:02:28.122Z,11
2018-07-13T13:05:28.178Z,11
2018-07-13T13:08:28.231Z,11
2018-07-13T13:11:28.280Z,12
2018-07-13T13:14:28.357Z,12
2018-07-13T13:17:28.487Z,11
2018-07-13T13:20:28.410Z,12
2018-07-13T13:23:28.463Z,12
2018-07-13T13:26:28.506Z,13
2018-07-13T13:29:28.596Z,12
2018-07-13T13:32:28.623Z,12
2018-07-13T13:35:28.665Z,14
2018-07-13T13:38:28.793Z,18
2018-07-13T13:41:28.726Z,20
2018-07-13T13:44:28.802Z,21
2018-07-13T13:47:28.796Z,22
2018-07-13T13:50:28.836Z,23
2018-07-13T13:53:28.882Z,23
2018-07-13T13:56:28.887Z,24
2018-07-13T13:59:29.035Z,25
2018-07-13T14:02:29.349Z,25
2018-07-13T14:05:29.040Z,26
2018-07-13T14:08:28.996Z,27
2018-07-13T14:11:29.018Z,28
2018-07-13T14:14:29.098Z,28
2018-07-13T14:17:29.095Z,28
2018-07-13T14:20:29.210Z,29
2018-07-13T14:23:29.236Z,29
2018-07-13T14:26:29.575Z,30
2018-07-13T14:29:29.305Z,29
2018-07-13T14:32:29.209Z,30
2018-07-13T14:35:29.240Z,30
2018-07-13T14:38:29.357Z,29
2018-07-13T14:41:29.710Z,30
2018-07-13T14:44:29.321Z,29
2018-07-13T14:47:29.443Z,30
2018-07-13T14:50:29.468Z,29
2018-07-13T14:53:29.409Z,29
2018-07-13T14:56:29.513Z,30
2018-07-13T14:59:29.468Z,30
2018-07-13T15:02:29.466Z,30
2018-07-13T15:05:29.604Z,30
2018-07-13T15:08:29.520Z,30
2018-07-13T15:11:29.543Z,29
2018-07-13T15:14:29.577Z,30
2018-07-13T15:17:29.738Z,30
2018-07-13T15:20:29.644Z,29
2018-07-13T15:23:29.644Z,30
2018-07-13T15:26:29.769Z,29
2018-07-13T15:32:29.711Z,30
2018-07-13T15:35:29.741Z,29
2018-07-13T15:41:29.763Z,29
2018-07-13T15:44:29.826Z,29
